createdAt,value
2022-12-18T00:00:03.716Z,100824.41
2022-12-18T00:02:41.427Z,100829.53
2022-12-18T00:05:09.549Z,100845.28
2022-12-18T00:07:37.306Z,100848.13
2022-12-18T00:10:05.604Z,100846.00
2022-12-18T00:12:33.654Z,100854.66
2022-12-18T00:15:01.395Z,100846.94
2022-12-18T00:17:29.104Z,100854.47
2022-12-18T00:19:57.392Z,100861.72
2022-12-18T00:22:25.058Z,100863.97
2022-12-18T00:24:52.693Z,100876.06
2022-12-18T00:27:20.721Z,100877.56
2022-12-18T00:29:49.235Z,100877.56
2022-12-18T00:32:16.921Z,100882.97
2022-12-18T00:34:44.915Z,100885.28
2022-12-18T00:37:16.837Z,100899.03
2022-12-18T00:39:51.868Z,100896.88
2022-12-18T00:42:20.830Z,100907.44
2022-12-18T00:44:49.222Z,100912.03
2022-12-18T00:47:16.898Z,100917.34
2022-12-18T00:49:44.630Z,100910.47
2022-12-18T00:52:12.572Z,100921.53
2022-12-18T00:54:40.342Z,100918.69
2022-12-18T00:57:08.036Z,100918.94
2022-12-18T00:59:36.034Z,100916.94
2022-12-18T01:02:03.810Z,100921.81
2022-12-18T01:04:35.418Z,100928.22
2022-12-18T01:07:03.327Z,100926.66
2022-12-18T01:09:33.141Z,100918.72
2022-12-18T01:12:00.770Z,100927.91
2022-12-18T01:14:28.809Z,100936.25
2022-12-18T01:16:56.501Z,100932.97
2022-12-18T01:19:27.963Z,100936.44
2022-12-18T01:21:55.958Z,100939.97
2022-12-18T01:24:23.751Z,100942.97
2022-12-18T01:26:51.501Z,100939.66
2022-12-18T01:29:19.387Z,100937.59
2022-12-18T01:31:47.211Z,100947.12
2022-12-18T01:34:14.967Z,100945.59
2022-12-18T01:36:42.871Z,100947.00
2022-12-18T01:39:12.738Z,100950.44
2022-12-18T01:41:43.111Z,100950.44
2022-12-18T01:44:48.946Z,100954.38
2022-12-18T01:47:45.529Z,100955.53
2022-12-18T01:50:21.561Z,100964.78
2022-12-18T01:53:16.528Z,100967.59
2022-12-18T01:55:55.866Z,100971.50
2022-12-18T01:58:45.356Z,100975.75
2022-12-18T02:01:13.572Z,100978.94
2022-12-18T02:03:45.314Z,100983.63
2022-12-18T02:06:31.686Z,100993.97
2022-12-18T02:09:10.976Z,100981.47
2022-12-18T02:11:55.173Z,100990.09
2022-12-18T02:14:22.981Z,100984.94
2022-12-18T02:16:59.821Z,100989.16
2022-12-18T02:19:38.485Z,100994.69
2022-12-18T02:22:19.127Z,101006.00
2022-12-18T02:25:06.510Z,101012.47
2022-12-18T02:27:35.704Z,101005.22
2022-12-18T02:30:05.389Z,101012.56
2022-12-18T02:32:36.898Z,101006.78
2022-12-18T02:35:07.720Z,101009.75
2022-12-18T02:37:36.944Z,101012.69
2022-12-18T02:40:06.229Z,101015.59
2022-12-18T02:42:34.333Z,101016.25
2022-12-18T02:45:02.895Z,101021.81
2022-12-18T02:47:35.387Z,101017.00
2022-12-18T02:50:39.445Z,101020.81
2022-12-18T02:53:12.614Z,101020.00
2022-12-18T02:56:00.353Z,101024.31
2022-12-18T02:58:54.637Z,101025.31
2022-12-18T03:01:42.546Z,101028.72
2022-12-18T03:04:19.539Z,101027.75
2022-12-18T03:06:50.615Z,101038.13
2022-12-18T03:09:22.486Z,101041.09
2022-12-18T03:11:56.232Z,101040.75
2022-12-18T03:14:25.116Z,101039.69
2022-12-18T03:16:55.181Z,101040.31
2022-12-18T03:19:26.900Z,101037.09
2022-12-18T03:21:58.893Z,101048.94
2022-12-18T03:24:29.112Z,101052.75
2022-12-18T03:27:03.616Z,101058.47
2022-12-18T03:29:45.377Z,101059.03
2022-12-18T03:32:22.403Z,101057.09
2022-12-18T03:34:52.952Z,101069.41
2022-12-18T03:37:21.961Z,101071.94
2022-12-18T03:39:49.671Z,101068.41
2022-12-18T03:42:23.326Z,101075.22
2022-12-18T03:44:55.452Z,101080.31
2022-12-18T03:47:26.001Z,101080.31
2022-12-18T03:50:19.027Z,101087.97
2022-12-18T03:52:58.177Z,101087.03
2022-12-18T03:55:27.511Z,101099.50
2022-12-18T03:57:56.626Z,101101.59
2022-12-18T04:00:25.964Z,101094.78
2022-12-18T04:02:55.761Z,101098.06
2022-12-18T04:05:25.692Z,101103.22
2022-12-18T04:07:54.262Z,101098.66
2022-12-18T04:10:22.849Z,101102.94
2022-12-18T04:12:50.506Z,101100.66
2022-12-18T04:15:18.172Z,101107.63
2022-12-18T04:17:50.319Z,101104.16
2022-12-18T04:20:18.644Z,101102.63
2022-12-18T04:22:46.695Z,101106.62
2022-12-18T04:25:14.535Z,101103.47
2022-12-18T04:27:47.813Z,101109.72
2022-12-18T04:30:15.721Z,101113.34
2022-12-18T04:32:46.486Z,101115.53
2022-12-18T04:35:17.491Z,101120.31
2022-12-18T04:37:46.185Z,101119.59
2022-12-18T04:40:13.890Z,101119.91
2022-12-18T04:42:42.107Z,101131.25
2022-12-18T04:45:10.071Z,101128.50
2022-12-18T04:47:37.827Z,101135.66
2022-12-18T04:50:06.333Z,101140.25
2022-12-18T04:52:34.052Z,101149.50
2022-12-18T04:55:01.726Z,101144.22
2022-12-18T04:57:29.618Z,101155.13
2022-12-18T04:59:57.375Z,101153.97
2022-12-18T05:02:25.119Z,101164.28
2022-12-18T05:04:53.157Z,101165.63
2022-12-18T05:07:20.733Z,101166.97
2022-12-18T05:09:48.351Z,101164.62
2022-12-18T05:12:16.332Z,101174.69
2022-12-18T05:14:43.912Z,101167.62
2022-12-18T05:17:11.507Z,101176.41
2022-12-18T05:19:39.762Z,101179.41
2022-12-18T05:22:07.491Z,101178.50
2022-12-18T05:24:35.513Z,101180.22
2022-12-18T05:27:03.674Z,101178.41
2022-12-18T05:29:31.409Z,101187.34
2022-12-18T05:31:59.041Z,101181.06
2022-12-18T05:34:26.969Z,101178.91
2022-12-18T05:36:54.597Z,101185.50
2022-12-18T05:39:22.285Z,101191.03
2022-12-18T05:41:50.175Z,101195.97
2022-12-18T05:44:17.852Z,101197.78
2022-12-18T05:46:45.526Z,101199.50
2022-12-18T05:49:13.382Z,101195.12
2022-12-18T05:51:41.248Z,101197.97
2022-12-18T05:54:09.161Z,101196.88
2022-12-18T05:56:37.019Z,101202.72
2022-12-18T05:59:05.094Z,101204.50
2022-12-18T06:01:32.824Z,101206.63
2022-12-18T06:04:00.875Z,101208.25
2022-12-18T06:06:29.195Z,101211.06
2022-12-18T06:08:58.187Z,101217.28
2022-12-18T06:11:27.266Z,101212.28
2022-12-18T06:13:59.031Z,101214.81
2022-12-18T06:16:30.872Z,101216.75
2022-12-18T06:19:04.830Z,101233.41
2022-12-18T06:21:33.137Z,101230.88
2022-12-18T06:24:01.505Z,101233.41
2022-12-18T06:26:29.109Z,101246.50
2022-12-18T06:28:57.077Z,101247.78
2022-12-18T06:31:25.455Z,101246.97
2022-12-18T06:33:53.104Z,101253.22
2022-12-18T06:36:21.018Z,101264.00
2022-12-18T06:38:48.672Z,101262.25
2022-12-18T06:41:18.563Z,101273.44
2022-12-18T06:43:46.699Z,101272.50
2022-12-18T06:46:14.792Z,101280.87
2022-12-18T06:48:42.644Z,101279.03
2022-12-18T06:51:11.570Z,101278.53
2022-12-18T06:53:39.920Z,101286.94
2022-12-18T06:56:10.558Z,101286.81
2022-12-18T06:58:41.167Z,101299.59
2022-12-18T07:01:11.392Z,101296.12
2022-12-18T07:03:41.510Z,101307.66
2022-12-18T07:06:17.143Z,101304.50
2022-12-18T07:08:46.044Z,101310.59
2022-12-18T07:11:13.967Z,101317.03
2022-12-18T07:13:44.699Z,101322.69
2022-12-18T07:16:21.103Z,101321.56
2022-12-18T07:18:50.088Z,101325.81
2022-12-18T07:21:19.899Z,101330.56
2022-12-18T07:23:47.772Z,101333.38
2022-12-18T07:26:20.261Z,101339.97
2022-12-18T07:28:48.829Z,101339.09
2022-12-18T07:31:19.142Z,101340.66
2022-12-18T07:33:47.277Z,101344.91
2022-12-18T07:36:15.233Z,101358.87
2022-12-18T07:38:43.175Z,101361.59
2022-12-18T07:41:12.840Z,101369.88
2022-12-18T07:43:42.031Z,101367.38
2022-12-18T07:46:10.842Z,101371.84
2022-12-18T07:48:41.894Z,101377.56
2022-12-18T07:51:09.868Z,101384.94
2022-12-18T07:53:38.247Z,101378.69
2022-12-18T07:58:57.261Z,101382.13
2022-12-18T08:01:25.717Z,101386.16
2022-12-18T08:03:53.791Z,101392.19
2022-12-18T08:06:23.848Z,101392.91
2022-12-18T08:08:53.308Z,101398.19
2022-12-18T08:11:21.650Z,101405.72
2022-12-18T08:13:49.553Z,101404.34
2022-12-18T08:16:18.437Z,101405.16
2022-12-18T08:18:46.611Z,101405.25
2022-12-18T08:21:17.333Z,101404.53
2022-12-18T08:23:45.582Z,101416.56
2022-12-18T08:26:13.865Z,101416.13
2022-12-18T08:28:41.975Z,101422.34
2022-12-18T08:31:18.745Z,101416.44
2022-12-18T08:33:46.720Z,101425.62
2022-12-18T08:36:14.666Z,101419.09
2022-12-18T08:38:42.317Z,101420.34
2022-12-18T08:41:12.498Z,101420.88
2022-12-18T08:43:41.059Z,101422.97
2022-12-18T08:46:08.918Z,101427.53
2022-12-18T08:48:36.978Z,101428.47
2022-12-18T08:51:04.774Z,101426.59
2022-12-18T08:53:35.596Z,101430.88
2022-12-18T08:56:04.793Z,101420.78
2022-12-18T08:58:32.654Z,101427.69
2022-12-18T09:01:05.179Z,101425.81
2022-12-18T09:03:33.547Z,101436.28
2022-12-18T09:06:01.333Z,101437.53
2022-12-18T09:08:29.766Z,101435.66
2022-12-18T09:10:58.036Z,101437.06
2022-12-18T09:13:26.108Z,101450.03
2022-12-18T09:15:55.570Z,101450.47
2022-12-18T09:18:24.695Z,101461.03
2022-12-18T09:20:52.420Z,101462.78
2022-12-18T09:23:20.509Z,101449.59
2022-12-18T09:25:48.538Z,101455.66
2022-12-18T09:28:19.620Z,101455.72
2022-12-18T09:30:49.387Z,101468.88
2022-12-18T09:33:20.253Z,101475.91
2022-12-18T09:35:48.362Z,101472.34
2022-12-18T09:38:18.313Z,101472.00
2022-12-18T09:40:49.705Z,101466.66
2022-12-18T09:43:25.717Z,101461.78
2022-12-18T09:46:03.623Z,101468.41
2022-12-18T09:48:34.498Z,101462.31
2022-12-18T09:51:15.763Z,101465.75
2022-12-18T09:53:47.557Z,101471.31
2022-12-18T09:56:18.474Z,101477.44
2022-12-18T09:59:00.208Z,101474.41
2022-12-18T10:01:38.788Z,101469.38
2022-12-18T10:04:09.946Z,101466.59
2022-12-18T10:06:46.177Z,101463.50
2022-12-18T10:09:17.088Z,101459.88
2022-12-18T10:11:50.166Z,101452.19
2022-12-18T10:14:30.474Z,101444.56
2022-12-18T10:17:16.799Z,101443.97
2022-12-18T10:19:54.645Z,101451.78
2022-12-18T10:22:40.999Z,101444.38
2022-12-18T10:25:23.485Z,101446.87
2022-12-18T10:27:54.511Z,101442.44
2022-12-18T10:30:23.912Z,101443.13
2022-12-18T10:32:53.108Z,101443.37
2022-12-18T10:35:27.605Z,101446.56
2022-12-18T10:38:16.916Z,101442.25
2022-12-18T10:40:57.802Z,101445.06
2022-12-18T10:43:36.696Z,101445.94
2022-12-18T10:46:10.053Z,101440.81
2022-12-18T10:48:48.282Z,101441.38
2022-12-18T10:51:27.714Z,101445.91
2022-12-18T10:54:07.890Z,101441.84
2022-12-18T10:56:37.683Z,101450.44
2022-12-18T10:59:13.593Z,101438.81
2022-12-18T11:01:56.033Z,101447.78
2022-12-18T11:04:32.636Z,101447.34
2022-12-18T11:07:00.161Z,101447.28
2022-12-18T11:09:30.487Z,101451.88
2022-12-18T11:12:00.677Z,101451.06
2022-12-18T11:14:55.708Z,101449.19
2022-12-18T11:17:32.658Z,101445.72
2022-12-18T11:20:02.873Z,101447.50
2022-12-18T11:22:32.661Z,101439.31
2022-12-18T11:28:36.819Z,101439.03
2022-12-18T11:31:24.662Z,101428.31
2022-12-18T11:34:28.535Z,101441.31
2022-12-18T11:36:59.394Z,101445.78
2022-12-18T11:39:35.785Z,101435.25
2022-12-18T11:42:18.378Z,101441.41
2022-12-18T11:44:55.156Z,101433.25
2022-12-18T11:47:28.802Z,101434.28
2022-12-18T11:49:57.166Z,101433.91
2022-12-18T11:52:27.817Z,101427.72
2022-12-18T11:55:21.558Z,101425.31
2022-12-18T11:58:02.757Z,101425.22
2022-12-18T12:00:30.580Z,101420.09
2022-12-18T12:03:20.864Z,101418.16
2022-12-18T12:06:04.577Z,101431.34
2022-12-18T12:08:58.798Z,101429.97
2022-12-18T12:11:38.517Z,101427.88
2022-12-18T12:14:28.313Z,101414.16
2022-12-18T12:17:14.556Z,101419.06
2022-12-18T12:20:03.654Z,101417.94
2022-12-18T12:22:56.369Z,101415.88
2022-12-18T12:25:32.194Z,101420.56
2022-12-18T12:28:05.869Z,101411.97
2022-12-18T12:30:52.529Z,101410.41
2022-12-18T12:33:32.579Z,101416.91
2022-12-18T12:36:03.376Z,101417.47
2022-12-18T12:38:52.125Z,101422.09
2022-12-18T12:41:33.084Z,101417.06
2022-12-18T12:44:04.319Z,101426.66
2022-12-18T12:46:34.271Z,101430.28
2022-12-18T12:49:11.260Z,101426.44
2022-12-18T12:51:44.858Z,101434.53
2022-12-18T12:54:24.562Z,101442.12
2022-12-18T12:57:13.207Z,101440.09
2022-12-18T12:59:51.276Z,101438.22
2022-12-18T13:02:43.572Z,101443.69
2022-12-18T13:05:40.197Z,101454.31
2022-12-18T13:08:11.260Z,101450.81
2022-12-18T13:10:40.805Z,101458.06
2022-12-18T13:13:47.039Z,101460.44
2022-12-18T13:16:06.942Z,101459.81
2022-12-18T13:18:35.549Z,101458.22
2022-12-18T13:21:10.084Z,101465.75
2022-12-18T13:23:39.753Z,101471.78
2022-12-18T13:26:07.812Z,101469.47
2022-12-18T13:28:48.240Z,101474.72
2022-12-18T13:31:39.543Z,101480.31
2022-12-18T13:34:29.455Z,101476.03
2022-12-18T13:37:32.949Z,101476.78
2022-12-18T13:40:00.810Z,101478.97
2022-12-18T13:42:41.387Z,101483.16
2022-12-18T13:45:43.957Z,101491.72
2022-12-18T13:48:22.689Z,101493.16
2022-12-18T13:51:07.834Z,101508.28
2022-12-18T13:53:56.010Z,101507.91
2022-12-18T13:56:32.545Z,101516.03
2022-12-18T13:59:15.455Z,101506.72
2022-12-18T14:01:58.962Z,101504.78
2022-12-18T14:04:29.689Z,101497.16
2022-12-18T14:06:59.985Z,101493.69
2022-12-18T14:09:31.509Z,101499.22
2022-12-18T14:12:00.722Z,101499.31
2022-12-18T14:14:32.526Z,101505.66
2022-12-18T14:17:02.011Z,101499.16
2022-12-18T14:19:35.342Z,101494.44
2022-12-18T14:22:03.092Z,101496.69
2022-12-18T14:24:31.091Z,101502.44
2022-12-18T14:27:14.385Z,101503.84
2022-12-18T14:29:44.058Z,101497.41
2022-12-18T14:32:17.720Z,101499.62
2022-12-18T14:34:50.645Z,101503.03
2022-12-18T14:37:22.932Z,101497.66
2022-12-18T14:39:59.238Z,101496.72
2022-12-18T14:42:28.111Z,101498.75
2022-12-18T14:45:39.131Z,101503.69
2022-12-18T14:48:14.268Z,101511.31
2022-12-18T14:50:44.755Z,101518.25
2022-12-18T14:53:33.299Z,101519.44
2022-12-18T14:56:01.766Z,101523.03
2022-12-18T14:58:29.508Z,101533.53
2022-12-18T15:00:57.363Z,101544.31
2022-12-18T15:03:26.332Z,101543.66
2022-12-18T15:05:54.669Z,101548.44
2022-12-18T15:08:40.597Z,101554.44
2022-12-18T15:11:46.487Z,101553.09
2022-12-18T15:14:36.475Z,101555.91
2022-12-18T15:17:27.433Z,101566.63
2022-12-18T15:20:01.794Z,101558.47
2022-12-18T15:22:39.107Z,101573.97
2022-12-18T15:25:28.667Z,101572.97
2022-12-18T15:27:57.321Z,101570.44
2022-12-18T15:30:26.557Z,101573.00
2022-12-18T15:33:17.744Z,101568.91
2022-12-18T15:35:47.280Z,101580.44
2022-12-18T15:38:15.578Z,101584.31
2022-12-18T15:40:44.733Z,101585.22
2022-12-18T15:43:12.944Z,101587.34
2022-12-18T15:45:41.123Z,101583.94
2022-12-18T15:48:21.480Z,101587.53
2022-12-18T15:50:56.140Z,101589.44
2022-12-18T15:53:31.430Z,101585.94
2022-12-18T15:56:01.298Z,101593.25
2022-12-18T15:58:29.990Z,101596.63
2022-12-18T16:01:00.021Z,101600.28
2022-12-18T16:03:28.439Z,101613.94
2022-12-18T16:05:57.502Z,101620.88
2022-12-18T16:08:26.639Z,101618.78
2022-12-18T16:10:54.674Z,101631.06
2022-12-18T16:13:22.391Z,101629.94
2022-12-18T16:15:50.715Z,101629.56
2022-12-18T16:18:19.036Z,101630.28
2022-12-18T16:20:46.870Z,101634.25
2022-12-18T16:23:14.946Z,101634.34
2022-12-18T16:25:43.138Z,101632.81
2022-12-18T16:28:11.073Z,101640.91
2022-12-18T16:30:39.555Z,101636.00
2022-12-18T16:33:10.563Z,101639.16
2022-12-18T16:35:38.688Z,101641.22
2022-12-18T16:38:06.613Z,101650.81
2022-12-18T16:40:37.316Z,101656.59
2022-12-18T16:43:05.217Z,101652.09
2022-12-18T16:45:35.562Z,101649.38
2022-12-18T16:48:04.708Z,101654.75
2022-12-18T16:50:32.611Z,101650.19
2022-12-18T16:53:01.808Z,101651.53
2022-12-18T16:55:30.066Z,101663.00
2022-12-18T16:57:58.442Z,101660.19
2022-12-18T17:00:26.503Z,101653.47
2022-12-18T17:02:58.067Z,101656.56
2022-12-18T17:05:25.843Z,101662.56
2022-12-18T17:07:53.807Z,101657.84
2022-12-18T17:10:21.866Z,101662.78
2022-12-18T17:12:51.330Z,101662.97
2022-12-18T17:15:19.426Z,101657.09
2022-12-18T17:17:51.357Z,101652.16
2022-12-18T17:20:19.317Z,101649.34
2022-12-18T17:22:48.742Z,101646.25
2022-12-18T17:25:17.468Z,101640.31
2022-12-18T17:27:46.562Z,101646.44
2022-12-18T17:30:14.863Z,101645.78
2022-12-18T17:32:43.199Z,101644.78
2022-12-18T17:35:11.326Z,101653.00
2022-12-18T17:37:41.052Z,101648.59
2022-12-18T17:40:09.974Z,101657.06
2022-12-18T17:42:37.797Z,101653.91
2022-12-18T17:45:06.230Z,101654.50
2022-12-18T17:47:34.551Z,101654.97
2022-12-18T17:50:03.131Z,101653.13
2022-12-18T17:52:31.208Z,101658.09
2022-12-18T17:55:00.625Z,101652.81
2022-12-18T17:57:28.509Z,101656.44
2022-12-18T17:59:56.476Z,101655.13
2022-12-18T18:02:24.669Z,101656.13
2022-12-18T18:04:53.062Z,101664.88
2022-12-18T18:07:20.758Z,101663.72
2022-12-18T18:09:48.857Z,101665.03
2022-12-18T18:12:17.249Z,101659.94
2022-12-18T18:14:45.111Z,101653.03
2022-12-18T18:17:15.175Z,101659.44
2022-12-18T18:19:44.833Z,101648.72
2022-12-18T18:22:17.212Z,101654.31
2022-12-18T18:24:47.008Z,101650.03
2022-12-18T18:27:14.998Z,101661.28
2022-12-18T18:29:42.909Z,101665.06
2022-12-18T18:32:11.577Z,101663.75
2022-12-18T18:34:51.517Z,101669.69
2022-12-18T18:37:20.306Z,101661.56
2022-12-18T18:39:48.410Z,101667.87
2022-12-18T18:42:16.507Z,101667.87
2022-12-18T18:44:48.955Z,101661.63
2022-12-18T18:47:17.109Z,101662.97
2022-12-18T18:49:45.482Z,101672.66
2022-12-18T18:52:13.685Z,101679.25
2022-12-18T18:55:03.585Z,101676.75
2022-12-18T18:57:30.852Z,101686.16
2022-12-18T18:59:58.920Z,101683.19
2022-12-18T19:02:27.059Z,101691.09
2022-12-18T19:04:55.282Z,101688.81
2022-12-18T19:07:30.531Z,101693.25
2022-12-18T19:10:04.625Z,101693.25
2022-12-18T19:12:34.647Z,101703.44
2022-12-18T19:15:05.893Z,101719.41
2022-12-18T19:17:34.132Z,101715.28
2022-12-18T19:20:04.851Z,101727.81
2022-12-18T19:22:33.206Z,101722.53
2022-12-18T19:25:00.910Z,101719.75
2022-12-18T19:27:29.049Z,101722.22
2022-12-18T19:29:57.374Z,101718.72
2022-12-18T19:32:25.344Z,101716.56
2022-12-18T19:34:53.442Z,101731.09
2022-12-18T19:37:21.582Z,101735.66
2022-12-18T19:39:50.944Z,101735.00
2022-12-18T19:42:24.586Z,101731.72
2022-12-18T19:44:54.614Z,101731.53
2022-12-18T19:47:22.507Z,101745.53
2022-12-18T19:49:50.455Z,101749.16
2022-12-18T19:52:18.533Z,101746.69
2022-12-18T19:54:46.620Z,101754.31
2022-12-18T19:57:14.740Z,101762.88
2022-12-18T19:59:44.464Z,101755.59
2022-12-18T20:02:14.452Z,101761.41
2022-12-18T20:04:42.603Z,101763.88
2022-12-18T20:07:10.420Z,101753.72
2022-12-18T20:09:38.767Z,101757.69
2022-12-18T20:12:07.918Z,101767.06
2022-12-18T20:14:39.586Z,101758.78
2022-12-18T20:17:08.263Z,101751.41
2022-12-18T20:19:36.613Z,101749.91
2022-12-18T20:22:05.562Z,101754.03
2022-12-18T20:24:33.980Z,101749.59
2022-12-18T20:27:03.302Z,101760.59
2022-12-18T20:29:31.250Z,101760.09
2022-12-18T20:32:00.202Z,101771.78
2022-12-18T20:34:28.556Z,101767.53
2022-12-18T20:36:56.209Z,101760.94
2022-12-18T20:39:25.461Z,101762.81
2022-12-18T20:41:53.827Z,101762.97
2022-12-18T20:44:24.067Z,101778.19
2022-12-18T20:46:57.160Z,101772.19
2022-12-18T20:49:26.298Z,101778.38
2022-12-18T20:51:56.632Z,101773.34
2022-12-18T20:54:26.554Z,101764.19
2022-12-18T20:56:55.539Z,101773.09
2022-12-18T20:59:23.610Z,101776.53
2022-12-18T21:01:54.996Z,101775.03
2022-12-18T21:04:23.513Z,101777.31
2022-12-18T21:06:58.020Z,101776.69
2022-12-18T21:09:30.379Z,101782.72
2022-12-18T21:12:15.478Z,101787.13
2022-12-18T21:14:44.417Z,101789.03
2022-12-18T21:17:12.286Z,101800.47
2022-12-18T21:19:40.868Z,101803.59
2022-12-18T21:22:10.073Z,101798.28
2022-12-18T21:24:37.893Z,101786.31
2022-12-18T21:27:05.566Z,101795.50
2022-12-18T21:29:33.813Z,101789.97
2022-12-18T21:32:02.696Z,101793.53
2022-12-18T21:34:31.341Z,101791.25
2022-12-18T21:37:00.424Z,101805.84
2022-12-18T21:39:29.386Z,101790.63
2022-12-18T21:41:57.519Z,101791.34
2022-12-18T21:44:26.538Z,101795.03
2022-12-18T21:46:59.831Z,101780.69
2022-12-18T21:49:31.747Z,101773.63
2022-12-18T21:52:00.544Z,101776.03
2022-12-18T21:54:29.246Z,101780.91
2022-12-18T21:56:59.118Z,101780.03
2022-12-18T21:59:34.865Z,101779.84
2022-12-18T22:02:21.798Z,101776.13
2022-12-18T22:04:49.829Z,101772.34
2022-12-18T22:07:17.428Z,101771.53
2022-12-18T22:09:45.362Z,101769.41
2022-12-18T22:12:13.641Z,101775.87
2022-12-18T22:14:41.424Z,101772.03
2022-12-18T22:17:09.139Z,101764.31
2022-12-18T22:19:42.849Z,101766.31
2022-12-18T22:22:11.013Z,101766.16
2022-12-18T22:24:39.109Z,101766.16
2022-12-18T22:27:06.690Z,101766.31
2022-12-18T22:29:35.293Z,101767.59
2022-12-18T22:32:04.574Z,101778.19
2022-12-18T22:34:36.588Z,101764.34
2022-12-18T22:37:05.091Z,101769.16
2022-12-18T22:39:33.071Z,101771.75
2022-12-18T22:42:01.270Z,101767.81
2022-12-18T22:44:29.461Z,101778.87
2022-12-18T22:47:06.921Z,101774.25
2022-12-18T22:49:36.362Z,101777.19
2022-12-18T22:52:04.883Z,101780.66
2022-12-18T22:54:33.119Z,101778.53
2022-12-18T22:57:01.086Z,101784.31
2022-12-18T22:59:28.749Z,101780.03
2022-12-18T23:01:59.060Z,101779.37
2022-12-18T23:04:27.689Z,101779.91
2022-12-18T23:06:58.811Z,101783.31
2022-12-18T23:09:26.375Z,101785.47
2022-12-18T23:11:54.341Z,101792.84
2022-12-18T23:14:22.016Z,101794.81
2022-12-18T23:16:53.460Z,101796.28
2022-12-18T23:19:22.689Z,101796.03
2022-12-18T23:21:51.797Z,101799.09
2022-12-18T23:24:22.394Z,101795.16
2022-12-18T23:26:50.031Z,101791.72
2022-12-18T23:29:17.701Z,101795.31
2022-12-18T23:31:46.239Z,101800.78
2022-12-18T23:34:14.702Z,101790.53
2022-12-18T23:36:46.385Z,101791.03
2022-12-18T23:39:17.460Z,101789.69
2022-12-18T23:41:58.659Z,101790.03
2022-12-18T23:44:26.615Z,101784.59
2022-12-18T23:46:54.801Z,101787.41
2022-12-18T23:49:22.693Z,101780.31
2022-12-18T23:51:50.941Z,101784.59
2022-12-18T23:54:22.364Z,101786.91
2022-12-18T23:56:59.690Z,101789.87
2022-12-18T23:59:30.643Z,101797.31
